Time;durP1;ratioP1;P1;durP2;ratioP2;P2;SDS_P1;SDS_P2;PMS_P1;PMS_P2;Temp;Humidity;BMP_temperature;BMP_pressure;BME280_temperature;BME280_humidity;BME280_pressure;Samples;Min_cycle;Max_cycle;Signal;HPM_P1;HPM_P2
2022/05/30 00:01:46;;;;;;;5.30;1.80;;;;;;;;;;4982848;28;20194;-55
2022/05/30 00:04:12;;;;;;;4.27;1.97;;;;;;;;;;4985851;28;20233;-56
2022/05/30 00:06:38;;;;;;;2.17;1.73;;;;;;;;;;4983577;28;20237;-56
2022/05/30 00:09:04;;;;;;;3.40;1.67;;;;;;;;;;4983774;28;20217;-56
2022/05/30 00:11:30;;;;;;;3.33;1.70;;;;;;;;;;4993801;28;20190;-56
2022/05/30 00:13:56;;;;;;;3.00;1.50;;;;;;;;;;4993433;28;20189;-56
2022/05/30 00:16:23;;;;;;;2.43;1.50;;;;;;;;;;4989761;28;20189;-56
2022/05/30 00:18:49;;;;;;;3.13;1.50;;;;;;;;;;4988376;28;20190;-56
2022/05/30 00:21:19;;;;;;;2.53;1.60;;;;;;;;;;4990258;28;20204;-56
2022/05/30 00:23:45;;;;;;;3.17;1.80;;;;;;;;;;4989963;28;20653;-56
2022/05/30 00:26:11;;;;;;;6.13;1.80;;;;;;;;;;4985257;28;20225;-56
2022/05/30 00:28:37;;;;;;;2.60;1.73;;;;;;;;;;4993769;28;20734;-56
2022/05/30 00:31:03;;;;;;;2.67;1.70;;;;;;;;;;4989927;28;20684;-56
2022/05/30 00:33:29;;;;;;;6.03;2.03;;;;;;;;;;4996112;28;20639;-57
2022/05/30 00:35:55;;;;;;;3.60;1.90;;;;;;;;;;4991818;28;20201;-55
2022/05/30 00:38:21;;;;;;;5.10;1.87;;;;;;;;;;4994532;28;20214;-57
2022/05/30 00:40:47;;;;;;;4.87;1.83;;;;;;;;;;4990486;28;20178;-56
2022/05/30 00:43:20;;;;;;;6.07;2.20;;;;;;;;;;4986684;28;20872;-56
2022/05/30 00:45:46;;;;;;;5.73;2.30;;;;;;;;;;4994309;28;20186;-56
2022/05/30 00:48:12;;;;;;;5.33;2.43;;;;;;;;;;4990610;28;20612;-56
2022/05/30 00:50:38;;;;;;;3.53;2.07;;;;;;;;;;4994891;28;20190;-57
2022/05/30 00:53:03;;;;;;;5.30;2.03;;;;;;;;;;4991738;28;20279;-56
2022/05/30 00:55:29;;;;;;;3.60;2.10;;;;;;;;;;4984739;28;23310;-55
2022/05/30 00:57:55;;;;;;;5.10;1.80;;;;;;;;;;4989704;28;20186;-56
2022/05/30 01:00:22;;;;;;;4.27;2.03;;;;;;;;;;4989900;28;20197;-56
2022/05/30 01:08:18;;;;;;;5.00;1.87;;;;;;;;;;4993536;28;20307;-56
2022/05/30 01:10:44;;;;;;;3.57;1.97;;;;;;;;;;4983231;28;20570;-55
2022/05/30 01:13:13;;;;;;;6.07;2.00;;;;;;;;;;4987874;28;20726;-56
2022/05/30 01:15:39;;;;;;;4.37;1.93;;;;;;;;;;4985534;28;20655;-56
2022/05/30 01:18:08;;;;;;;2.87;1.73;;;;;;;;;;4959076;28;20189;-55
2022/05/30 01:20:37;;;;;;;6.27;1.80;;;;;;;;;;4976680;28;20214;-56
2022/05/30 01:23:03;;;;;;;3.77;1.80;;;;;;;;;;4970760;28;20225;-56
2022/05/30 01:25:34;;;;;;;3.40;2.30;;;;;;;;;;4970136;28;20213;-56
2022/05/30 01:28:03;;;;;;;2.73;1.93;;;;;;;;;;4983907;28;20437;-56
2022/05/30 01:30:29;;;;;;;3.80;1.50;;;;;;;;;;4990984;28;20727;-56
2022/05/30 01:32:57;;;;;;;3.27;1.70;;;;;;;;;;4984499;28;20251;-57
2022/05/30 01:35:23;;;;;;;3.37;2.00;;;;;;;;;;4993952;28;20218;-56
2022/05/30 01:37:49;;;;;;;3.93;1.57;;;;;;;;;;4990586;28;20243;-57
2022/05/30 01:40:15;;;;;;;3.10;1.93;;;;;;;;;;4990037;28;20236;-56
2022/05/30 01:42:41;;;;;;;2.97;1.60;;;;;;;;;;4992839;28;20183;-56
2022/05/30 01:45:08;;;;;;;5.10;2.13;;;;;;;;;;4984426;28;20190;-56
2022/05/30 01:47:34;;;;;;;3.40;1.87;;;;;;;;;;4992781;28;20247;-56
2022/05/30 01:50:00;;;;;;;6.50;2.00;;;;;;;;;;4986696;28;20762;-56
2022/05/30 01:52:28;;;;;;;3.23;2.30;;;;;;;;;;4993385;28;20645;-55
2022/05/30 01:54:54;;;;;;;3.77;1.97;;;;;;;;;;4978999;28;20188;-56
2022/05/30 01:57:20;;;;;;;4.00;1.70;;;;;;;;;;4988390;28;20640;-57
2022/05/30 01:59:46;;;;;;;3.10;1.80;;;;;;;;;;4990201;28;20739;-56
2022/05/30 02:02:12;;;;;;;2.70;1.80;;;;;;;;;;4982954;28;20277;-56
2022/05/30 02:04:38;;;;;;;4.60;2.00;;;;;;;;;;4983080;28;20234;-56
2022/05/30 02:07:04;;;;;;;4.60;1.97;;;;;;;;;;4990684;28;20210;-56
2022/05/30 02:09:30;;;;;;;2.20;1.70;;;;;;;;;;4987728;28;20376;-56
2022/05/30 02:11:56;;;;;;;2.93;1.70;;;;;;;;;;4987067;28;20208;-56
2022/05/30 02:14:22;;;;;;;5.47;2.10;;;;;;;;;;4982187;28;20232;-56
2022/05/30 02:17:00;;;;;;;2.50;1.80;;;;;;;;;;4991221;28;20228;-56
2022/05/30 02:19:27;;;;;;;3.47;1.63;;;;;;;;;;4990274;28;20282;-56
2022/05/30 02:21:53;;;;;;;5.37;1.77;;;;;;;;;;4989433;28;20190;-56
2022/05/30 02:24:18;;;;;;;3.60;1.90;;;;;;;;;;4991658;28;20755;-56
2022/05/30 02:26:44;;;;;;;3.63;2.03;;;;;;;;;;4994665;28;20230;-56
2022/05/30 02:29:10;;;;;;;5.83;1.80;;;;;;;;;;4990709;28;20210;-57
2022/05/30 02:31:36;;;;;;;3.13;1.90;;;;;;;;;;4991522;28;20212;-58
2022/05/30 02:36:47;;;;;;;4.70;1.80;;;;;;;;;;4993578;28;20793;-57
2022/05/30 02:39:14;;;;;;;3.43;2.30;;;;;;;;;;4990359;28;20198;-57
2022/05/30 02:41:40;;;;;;;7.13;2.17;;;;;;;;;;4991154;28;20669;-57
2022/05/30 02:44:06;;;;;;;8.80;2.10;;;;;;;;;;4981905;28;20647;-57
2022/05/30 02:46:32;;;;;;;5.87;2.07;;;;;;;;;;4991180;28;20248;-57
2022/05/30 02:48:58;;;;;;;5.67;2.00;;;;;;;;;;4986340;28;20209;-57
2022/05/30 02:51:24;;;;;;;5.30;1.93;;;;;;;;;;4987498;28;20592;-57
2022/05/30 02:53:50;;;;;;;6.70;2.03;;;;;;;;;;4990046;28;20847;-57
2022/05/30 02:56:16;;;;;;;5.20;2.10;;;;;;;;;;4991716;28;20187;-57
2022/05/30 02:58:42;;;;;;;4.43;2.10;;;;;;;;;;4990522;28;20880;-57
2022/05/30 03:01:09;;;;;;;7.63;2.13;;;;;;;;;;4985827;28;20258;-57
2022/05/30 03:03:35;;;;;;;9.33;2.40;;;;;;;;;;4985525;28;20237;-57
2022/05/30 03:06:01;;;;;;;2.73;1.77;;;;;;;;;;4988386;28;20536;-57
2022/05/30 03:08:27;;;;;;;3.30;1.70;;;;;;;;;;4986164;28;20738;-58
2022/05/30 03:10:53;;;;;;;6.23;2.00;;;;;;;;;;4991885;28;20264;-57
2022/05/30 03:13:19;;;;;;;6.87;2.43;;;;;;;;;;4989011;28;20499;-57
2022/05/30 03:15:45;;;;;;;5.70;2.00;;;;;;;;;;4987741;28;20548;-57
2022/05/30 03:18:11;;;;;;;5.73;1.93;;;;;;;;;;4995103;28;20197;-57
2022/05/30 03:20:37;;;;;;;6.93;2.10;;;;;;;;;;4994000;28;20190;-57
2022/05/30 03:23:03;;;;;;;6.27;1.90;;;;;;;;;;4987737;28;20186;-57
2022/05/30 03:25:29;;;;;;;4.77;2.00;;;;;;;;;;4989048;28;20525;-57
2022/05/30 03:27:56;;;;;;;7.83;2.60;;;;;;;;;;4990780;28;20221;-57
2022/05/30 03:30:22;;;;;;;4.87;2.10;;;;;;;;;;4989747;28;20213;-57
2022/05/30 03:32:48;;;;;;;5.40;2.07;;;;;;;;;;4992547;28;20194;-58
2022/05/30 03:35:14;;;;;;;5.70;2.00;;;;;;;;;;4992944;28;20184;-57
2022/05/30 03:37:40;;;;;;;6.80;2.17;;;;;;;;;;4987249;28;20221;-57
2022/05/30 03:40:07;;;;;;;5.60;2.10;;;;;;;;;;4984499;28;20200;-57
2022/05/30 03:42:33;;;;;;;7.23;2.23;;;;;;;;;;4991838;28;20641;-56
2022/05/30 03:44:59;;;;;;;4.63;2.37;;;;;;;;;;4985670;28;20225;-57
2022/05/30 03:47:25;;;;;;;2.93;1.97;;;;;;;;;;4989349;28;20213;-57
2022/05/30 03:49:57;;;;;;;4.40;1.97;;;;;;;;;;4990543;28;20625;-57
2022/05/30 03:52:23;;;;;;;3.23;1.90;;;;;;;;;;4980741;28;20241;-57
2022/05/30 03:54:49;;;;;;;2.33;1.90;;;;;;;;;;4983847;28;20655;-56
2022/05/30 03:57:15;;;;;;;8.53;1.90;;;;;;;;;;4988528;28;20190;-57
2022/05/30 03:59:41;;;;;;;8.17;2.43;;;;;;;;;;4987713;28;20205;-57
2022/05/30 04:02:07;;;;;;;7.57;2.50;;;;;;;;;;4974141;28;20186;-57
2022/05/30 04:04:33;;;;;;;5.33;2.10;;;;;;;;;;4974613;28;20279;-56
2022/05/30 04:06:59;;;;;;;4.43;1.97;;;;;;;;;;4976180;28;20330;-56
2022/05/30 04:09:25;;;;;;;5.43;2.20;;;;;;;;;;4986393;28;20292;-57
2022/05/30 04:11:51;;;;;;;4.07;1.87;;;;;;;;;;4991296;28;20653;-58
2022/05/30 04:14:17;;;;;;;4.03;1.90;;;;;;;;;;4987399;28;20660;-58
2022/05/30 04:16:42;;;;;;;5.97;2.20;;;;;;;;;;4988380;28;20208;-57
2022/05/30 04:19:08;;;;;;;5.00;2.10;;;;;;;;;;4990665;28;20194;-56
2022/05/30 04:21:35;;;;;;;5.73;1.97;;;;;;;;;;4987602;28;20198;-56
2022/05/30 04:24:01;;;;;;;4.47;2.30;;;;;;;;;;4982257;28;20311;-56
2022/05/30 04:26:27;;;;;;;4.60;1.83;;;;;;;;;;4988521;28;20200;-56
2022/05/30 04:28:53;;;;;;;3.63;1.80;;;;;;;;;;4989080;28;20261;-56
2022/05/30 04:31:19;;;;;;;5.43;2.40;;;;;;;;;;4979836;28;20190;-56
2022/05/30 04:33:45;;;;;;;4.87;2.10;;;;;;;;;;4985793;28;20189;-55
2022/05/30 04:36:12;;;;;;;4.37;2.10;;;;;;;;;;4991981;28;20267;-55
2022/05/30 04:38:38;;;;;;;8.60;2.13;;;;;;;;;;4990418;28;20205;-56
2022/05/30 04:41:04;;;;;;;5.40;2.07;;;;;;;;;;4982982;28;20623;-55
2022/05/30 04:43:30;;;;;;;3.57;1.83;;;;;;;;;;4992673;28;20190;-56
2022/05/30 04:46:12;;;;;;;7.33;2.00;;;;;;;;;;4995463;28;20806;-56
2022/05/30 04:48:37;;;;;;;5.83;2.00;;;;;;;;;;4990999;28;20702;-58
2022/05/30 04:51:03;;;;;;;6.53;2.00;;;;;;;;;;4984438;28;20185;-57
2022/05/30 04:53:30;;;;;;;7.93;2.23;;;;;;;;;;4979807;28;20649;-57
2022/05/30 04:55:55;;;;;;;6.97;2.10;;;;;;;;;;4974380;28;20372;-57
2022/05/30 04:58:21;;;;;;;4.70;2.20;;;;;;;;;;4984123;28;20225;-57
2022/05/30 05:00:47;;;;;;;4.17;2.43;;;;;;;;;;4981222;28;20185;-58
2022/05/30 05:03:13;;;;;;;9.03;2.40;;;;;;;;;;4983925;28;20205;-59
2022/05/30 05:05:39;;;;;;;3.47;2.20;;;;;;;;;;4963648;28;20232;-56
2022/05/30 05:08:06;;;;;;;6.40;2.40;;;;;;;;;;4973122;28;20186;-56
2022/05/30 05:10:32;;;;;;;5.27;2.60;;;;;;;;;;4976904;28;20788;-55
2022/05/30 05:12:58;;;;;;;6.90;2.70;;;;;;;;;;4982562;28;20276;-57
2022/05/30 05:15:24;;;;;;;3.93;2.20;;;;;;;;;;4990697;28;20213;-59
2022/05/30 05:17:50;;;;;;;11.30;2.73;;;;;;;;;;4991080;28;20197;-58
2022/05/30 05:20:16;;;;;;;4.10;2.10;;;;;;;;;;4985953;28;20244;-58
2022/05/30 05:22:42;;;;;;;7.07;2.57;;;;;;;;;;4986354;28;20201;-58
2022/05/30 05:25:08;;;;;;;5.07;2.10;;;;;;;;;;4989656;28;20220;-59
2022/05/30 05:27:34;;;;;;;7.20;2.17;;;;;;;;;;4988067;28;20689;-58
2022/05/30 05:30:00;;;;;;;5.60;2.27;;;;;;;;;;4988596;28;20217;-58
2022/05/30 05:32:26;;;;;;;5.93;2.63;;;;;;;;;;4995021;28;20217;-57
2022/05/30 05:34:52;;;;;;;6.90;2.30;;;;;;;;;;4995692;28;20182;-58
2022/05/30 05:37:18;;;;;;;6.40;2.23;;;;;;;;;;4997195;28;20899;-58
2022/05/30 05:39:44;;;;;;;3.73;2.10;;;;;;;;;;4996927;28;20659;-59
2022/05/30 05:42:10;;;;;;;4.87;2.37;;;;;;;;;;4993619;28;20194;-59
2022/05/30 05:44:36;;;;;;;4.33;1.90;;;;;;;;;;4994960;28;20209;-58
2022/05/30 05:47:02;;;;;;;5.63;2.30;;;;;;;;;;4996556;28;20663;-57
2022/05/30 05:49:28;;;;;;;7.00;3.07;;;;;;;;;;4998856;28;20214;-58
2022/05/30 05:51:57;;;;;;;5.47;2.20;;;;;;;;;;4996710;28;20178;-58
2022/05/30 05:54:23;;;;;;;5.33;2.40;;;;;;;;;;4995813;28;20190;-59
2022/05/30 05:56:49;;;;;;;9.60;2.53;;;;;;;;;;4996225;28;20186;-64
2022/05/30 05:59:15;;;;;;;5.60;2.13;;;;;;;;;;4988795;28;20592;-58
2022/05/30 06:01:41;;;;;;;5.77;2.23;;;;;;;;;;4994600;28;20186;-58
2022/05/30 06:04:08;;;;;;;7.87;2.30;;;;;;;;;;4993489;28;20230;-58
2022/05/30 06:06:34;;;;;;;5.33;2.20;;;;;;;;;;4996723;28;20710;-57
2022/05/30 06:09:01;;;;;;;5.67;2.23;;;;;;;;;;4998317;28;20226;-58
2022/05/30 06:11:27;;;;;;;4.83;2.10;;;;;;;;;;4992501;28;20278;-57
2022/05/30 06:13:53;;;;;;;5.67;2.60;;;;;;;;;;4995493;28;20251;-59
2022/05/30 06:16:27;;;;;;;6.20;2.47;;;;;;;;;;4996439;28;20191;-57
2022/05/30 06:18:54;;;;;;;4.57;1.87;;;;;;;;;;4995666;28;20317;-57
2022/05/30 06:21:20;;;;;;;5.37;1.90;;;;;;;;;;4996541;28;20193;-58
2022/05/30 06:23:47;;;;;;;7.07;2.30;;;;;;;;;;4987944;28;20192;-58
2022/05/30 06:26:13;;;;;;;7.43;2.27;;;;;;;;;;4993970;28;20201;-58
2022/05/30 06:28:39;;;;;;;6.80;2.83;;;;;;;;;;4991721;28;20209;-58
2022/05/30 06:31:06;;;;;;;7.37;2.27;;;;;;;;;;4995592;28;20186;-58
2022/05/30 06:33:33;;;;;;;7.60;2.30;;;;;;;;;;4997891;28;20693;-58
2022/05/30 06:35:58;;;;;;;7.03;2.57;;;;;;;;;;4994984;28;20624;-58
2022/05/30 06:38:24;;;;;;;5.53;1.97;;;;;;;;;;4997892;28;20186;-58
2022/05/30 06:40:50;;;;;;;6.63;2.47;;;;;;;;;;4993597;28;20642;-58
2022/05/30 06:43:16;;;;;;;4.63;2.17;;;;;;;;;;4991046;28;20282;-58
2022/05/30 06:45:46;;;;;;;5.10;2.10;;;;;;;;;;4990829;28;20396;-58
2022/05/30 06:48:12;;;;;;;6.37;2.37;;;;;;;;;;4997396;28;20186;-57
2022/05/30 06:50:38;;;;;;;8.00;2.57;;;;;;;;;;4994553;28;20221;-58
2022/05/30 06:53:04;;;;;;;5.03;1.97;;;;;;;;;;4993091;28;20193;-57
2022/05/30 06:55:31;;;;;;;5.30;2.40;;;;;;;;;;4987514;28;20257;-57
2022/05/30 06:58:12;;;;;;;6.33;2.33;;;;;;;;;;4992227;28;20200;-58
2022/05/30 07:00:38;;;;;;;8.30;2.80;;;;;;;;;;4994473;28;20186;-58
2022/05/30 07:03:04;;;;;;;7.13;2.13;;;;;;;;;;4996429;28;20562;-58
2022/05/30 07:05:30;;;;;;;5.40;2.20;;;;;;;;;;4990115;28;20199;-57
2022/05/30 07:07:56;;;;;;;6.60;2.10;;;;;;;;;;4995522;28;20186;-57
2022/05/30 07:10:22;;;;;;;7.60;2.43;;;;;;;;;;4990283;28;20223;-58
2022/05/30 07:12:49;;;;;;;8.83;2.77;;;;;;;;;;4990967;28;20205;-57
2022/05/30 07:15:15;;;;;;;5.97;2.50;;;;;;;;;;4991562;28;20206;-58
2022/05/30 07:17:41;;;;;;;5.23;2.03;;;;;;;;;;4999578;28;20287;-58
2022/05/30 07:20:07;;;;;;;5.03;2.17;;;;;;;;;;4994135;28;20186;-58
2022/05/30 07:22:33;;;;;;;7.80;2.50;;;;;;;;;;4994056;28;20198;-59
2022/05/30 07:24:59;;;;;;;3.93;2.23;;;;;;;;;;4989795;28;21264;-58
2022/05/30 07:27:25;;;;;;;5.77;2.47;;;;;;;;;;4990727;28;20214;-58
2022/05/30 07:29:51;;;;;;;7.37;2.60;;;;;;;;;;4991954;28;20209;-59
2022/05/30 07:32:17;;;;;;;5.60;2.27;;;;;;;;;;4990654;28;20209;-58
2022/05/30 07:34:43;;;;;;;8.17;2.60;;;;;;;;;;4995564;28;20187;-56
2022/05/30 07:37:09;;;;;;;7.27;2.80;;;;;;;;;;4994353;28;20236;-58
2022/05/30 07:39:36;;;;;;;7.70;2.70;;;;;;;;;;4990882;28;20194;-59
2022/05/30 07:42:03;;;;;;;3.47;2.60;;;;;;;;;;4986410;28;20189;-58
2022/05/30 07:44:29;;;;;;;8.13;3.23;;;;;;;;;;4994129;28;20275;-59
2022/05/30 07:46:56;;;;;;;7.33;2.47;;;;;;;;;;4994951;28;20680;-59
2022/05/30 07:49:22;;;;;;;5.13;2.10;;;;;;;;;;4994602;28;20213;-58
2022/05/30 07:51:48;;;;;;;6.13;2.73;;;;;;;;;;4996381;28;20217;-59
2022/05/30 07:54:13;;;;;;;7.23;2.53;;;;;;;;;;4998360;28;20185;-57
2022/05/30 07:56:39;;;;;;;7.17;2.67;;;;;;;;;;4996795;28;20597;-58
2022/05/30 07:59:05;;;;;;;8.40;2.70;;;;;;;;;;4994091;28;20194;-59
2022/05/30 08:01:31;;;;;;;4.63;2.10;;;;;;;;;;4993801;28;20565;-58
2022/05/30 08:03:57;;;;;;;8.80;2.40;;;;;;;;;;4988960;28;20268;-59
2022/05/30 08:06:25;;;;;;;6.37;2.70;;;;;;;;;;4985574;28;20190;-59
2022/05/30 08:08:51;;;;;;;6.23;2.63;;;;;;;;;;4993755;28;20263;-58
2022/05/30 08:11:17;;;;;;;5.73;2.50;;;;;;;;;;4999666;28;20186;-59
2022/05/30 08:13:45;;;;;;;8.63;2.63;;;;;;;;;;4999488;28;20686;-59
2022/05/30 08:16:11;;;;;;;7.28;2.50;;;;;;;;;;4995962;28;20457;-58
2022/05/30 08:18:37;;;;;;;6.22;2.55;;;;;;;;;;4993141;28;20202;-58
2022/05/30 08:21:03;;;;;;;6.70;2.40;;;;;;;;;;4995740;28;20190;-59
2022/05/30 08:23:29;;;;;;;7.80;2.67;;;;;;;;;;4995681;28;20201;-59
2022/05/30 08:25:55;;;;;;;6.50;2.70;;;;;;;;;;4993407;28;20484;-59
2022/05/30 08:28:21;;;;;;;5.03;2.53;;;;;;;;;;4997791;28;20660;-58
2022/05/30 08:30:47;;;;;;;5.23;2.67;;;;;;;;;;4996207;28;20223;-59
2022/05/30 08:33:14;;;;;;;5.53;2.30;;;;;;;;;;4997877;28;20864;-59
2022/05/30 08:35:40;;;;;;;8.75;2.42;;;;;;;;;;4996241;28;20582;-59
2022/05/30 08:38:06;;;;;;;8.43;3.50;;;;;;;;;;4997140;28;20186;-59
2022/05/30 08:43:37;;;;;;;7.70;3.00;;;;;;;;;;4996204;28;20256;-58
2022/05/30 08:46:10;;;;;;;4.97;2.50;;;;;;;;;;4999139;28;20188;-59
2022/05/30 08:48:45;;;;;;;5.80;2.30;;;;;;;;;;4996328;28;20197;-59
2022/05/30 08:51:15;;;;;;;4.93;2.40;;;;;;;;;;4996680;28;20201;-58
2022/05/30 08:53:47;;;;;;;7.10;2.83;;;;;;;;;;4993020;28;20186;-58
2022/05/30 08:56:26;;;;;;;8.67;3.53;;;;;;;;;;5001809;28;20185;-58
2022/05/30 08:59:04;;;;;;;9.70;2.60;;;;;;;;;;5003498;28;20181;-59
2022/05/30 09:01:32;;;;;;;11.63;3.27;;;;;;;;;;4995651;28;20194;-58
2022/05/30 09:04:20;;;;;;;6.80;2.67;;;;;;;;;;4996704;28;20329;-58
2022/05/30 09:06:50;;;;;;;7.57;2.97;;;;;;;;;;4998117;28;20665;-58
2022/05/30 09:09:24;;;;;;;4.90;2.80;;;;;;;;;;4995278;28;20213;-57
2022/05/30 09:11:54;;;;;;;10.13;3.10;;;;;;;;;;5002103;28;20333;-59
2022/05/30 09:14:32;;;;;;;7.27;3.00;;;;;;;;;;4999746;28;20189;-59
2022/05/30 09:16:59;;;;;;;5.43;2.80;;;;;;;;;;5000931;28;20703;-58
2022/05/30 09:19:25;;;;;;;6.87;2.87;;;;;;;;;;4990618;28;20202;-58
2022/05/30 09:21:53;;;;;;;8.47;3.10;;;;;;;;;;4996284;28;20185;-58
2022/05/30 09:24:19;;;;;;;9.37;3.27;;;;;;;;;;4993447;28;20233;-58
2022/05/30 09:26:45;;;;;;;7.27;3.13;;;;;;;;;;4998264;28;20230;-57
2022/05/30 09:29:17;;;;;;;5.60;3.07;;;;;;;;;;4994852;28;20215;-59
2022/05/30 09:32:02;;;;;;;6.80;3.37;;;;;;;;;;4999049;28;21063;-59
2022/05/30 09:34:37;;;;;;;5.73;3.27;;;;;;;;;;4993738;28;20185;-59
2022/05/30 09:37:03;;;;;;;7.63;3.30;;;;;;;;;;4993215;28;20674;-58
2022/05/30 09:39:29;;;;;;;6.83;3.10;;;;;;;;;;4995779;28;20189;-59
2022/05/30 09:41:56;;;;;;;6.73;3.10;;;;;;;;;;4990940;28;21074;-58
2022/05/30 09:44:26;;;;;;;6.80;3.20;;;;;;;;;;4991229;28;20197;-59
2022/05/30 09:46:52;;;;;;;7.27;3.37;;;;;;;;;;4997703;28;20226;-58
2022/05/30 09:49:38;;;;;;;5.93;3.10;;;;;;;;;;4994626;28;20205;-58
2022/05/30 09:52:20;;;;;;;6.30;3.07;;;;;;;;;;4993321;28;20671;-58
2022/05/30 09:54:46;;;;;;;6.50;3.30;;;;;;;;;;4998980;28;20197;-59
2022/05/30 09:57:13;;;;;;;7.33;3.20;;;;;;;;;;4995616;28;20194;-59
2022/05/30 09:59:40;;;;;;;6.53;2.90;;;;;;;;;;4991489;28;20314;-58
2022/05/30 10:02:26;;;;;;;6.50;3.03;;;;;;;;;;4998480;28;20210;-59
2022/05/30 10:04:57;;;;;;;7.38;3.28;;;;;;;;;;4995162;28;20236;-58
2022/05/30 10:07:23;;;;;;;6.90;3.15;;;;;;;;;;4991770;28;20186;-57
2022/05/30 10:09:51;;;;;;;6.85;3.05;;;;;;;;;;4991181;28;20209;-58
2022/05/30 10:12:33;;;;;;;5.05;3.20;;;;;;;;;;4995066;28;20559;-58
2022/05/30 10:14:59;;;;;;;6.38;3.03;;;;;;;;;;4993775;28;20266;-58
2022/05/30 10:17:32;;;;;;;7.18;3.10;;;;;;;;;;4993466;28;20287;-58
2022/05/30 10:19:58;;;;;;;5.60;3.08;;;;;;;;;;4996073;28;20265;-57
2022/05/30 10:28:27;;;;;;;5.03;3.13;;;;;;;;;;4993223;28;20208;-59
2022/05/30 10:30:56;;;;;;;4.13;2.72;;;;;;;;;;4999851;28;20260;-59
2022/05/30 10:33:25;;;;;;;4.75;2.85;;;;;;;;;;4995102;28;20197;-59
2022/05/30 10:36:06;;;;;;;5.25;2.63;;;;;;;;;;4994491;28;21180;-58
2022/05/30 10:38:36;;;;;;;5.85;3.22;;;;;;;;;;4989644;28;20663;-59
2022/05/30 10:41:05;;;;;;;4.03;2.60;;;;;;;;;;4999891;28;20215;-59
2022/05/30 10:43:37;;;;;;;5.35;2.67;;;;;;;;;;4996472;28;20221;-59
2022/05/30 10:46:04;;;;;;;4.18;2.80;;;;;;;;;;4991971;28;20186;-59
2022/05/30 10:48:31;;;;;;;6.72;3.15;;;;;;;;;;4995204;28;20193;-58
2022/05/30 10:51:13;;;;;;;5.30;2.90;;;;;;;;;;4991843;28;20199;-58
2022/05/30 10:53:57;;;;;;;5.35;2.70;;;;;;;;;;4995014;28;20235;-59
2022/05/30 10:56:29;;;;;;;5.75;2.60;;;;;;;;;;4993283;28;20642;-58
2022/05/30 10:59:04;;;;;;;4.22;2.65;;;;;;;;;;4989298;28;20560;-59
2022/05/30 11:01:37;;;;;;;4.40;2.72;;;;;;;;;;4989766;28;20176;-58
2022/05/30 11:04:11;;;;;;;4.15;2.33;;;;;;;;;;4998060;28;20298;-59
2022/05/30 11:06:37;;;;;;;4.22;2.67;;;;;;;;;;4992947;28;20269;-59
2022/05/30 11:09:04;;;;;;;9.98;2.50;;;;;;;;;;4987734;28;20217;-59
2022/05/30 11:11:29;;;;;;;6.68;2.50;;;;;;;;;;4992328;28;20192;-59
2022/05/30 11:14:04;;;;;;;8.07;2.85;;;;;;;;;;4997622;28;20189;-59
2022/05/30 11:16:36;;;;;;;3.63;2.33;;;;;;;;;;4996768;28;20203;-59
2022/05/30 11:19:14;;;;;;;7.45;2.40;;;;;;;;;;4996351;28;20245;-59
2022/05/30 11:21:40;;;;;;;4.65;2.75;;;;;;;;;;4998856;28;20197;-59
2022/05/30 11:24:06;;;;;;;4.05;2.42;;;;;;;;;;4993432;28;20452;-59
2022/05/30 11:26:51;;;;;;;5.25;2.38;;;;;;;;;;5000470;28;20196;-59
2022/05/30 11:29:41;;;;;;;6.18;2.40;;;;;;;;;;4995912;28;20295;-59
2022/05/30 11:32:26;;;;;;;3.03;2.05;;;;;;;;;;4999652;28;20225;-59
2022/05/30 11:34:55;;;;;;;5.88;2.30;;;;;;;;;;4998471;28;20555;-60
2022/05/30 11:37:40;;;;;;;3.35;2.22;;;;;;;;;;4997751;28;20183;-59
2022/05/30 11:40:10;;;;;;;4.80;2.10;;;;;;;;;;4996719;28;20228;-59
2022/05/30 11:42:46;;;;;;;4.60;1.95;;;;;;;;;;5005160;28;20198;-58
2022/05/30 11:45:31;;;;;;;2.80;2.20;;;;;;;;;;4993653;28;20217;-59
2022/05/30 11:48:15;;;;;;;3.90;2.15;;;;;;;;;;4993747;28;20284;-58
2022/05/30 11:50:47;;;;;;;5.10;2.08;;;;;;;;;;4996747;28;20216;-59
2022/05/30 11:53:13;;;;;;;3.53;2.38;;;;;;;;;;4993948;28;20583;-59
2022/05/30 11:55:58;;;;;;;4.50;2.08;;;;;;;;;;4995353;28;20178;-58
2022/05/30 11:58:43;;;;;;;3.92;2.28;;;;;;;;;;4995546;28;20255;-59
2022/05/30 12:01:11;;;;;;;3.25;2.05;;;;;;;;;;4998395;28;20174;-59
2022/05/30 12:03:46;;;;;;;5.13;2.08;;;;;;;;;;4998401;28;21489;-59
2022/05/30 12:06:24;;;;;;;3.30;2.03;;;;;;;;;;4994045;28;20194;-59
2022/05/30 12:08:56;;;;;;;4.15;2.20;;;;;;;;;;5000382;28;20196;-59
2022/05/30 12:11:45;;;;;;;3.08;2.00;;;;;;;;;;4999107;28;20744;-57
2022/05/30 12:14:23;;;;;;;4.10;2.05;;;;;;;;;;4968946;28;20286;-58
2022/05/30 12:16:49;;;;;;;3.35;2.05;;;;;;;;;;4997908;28;20659;-59
2022/05/30 12:24:51;;;;;;;3.25;2.10;;;;;;;;;;4995926;28;20193;-58
2022/05/30 12:27:29;;;;;;;3.58;1.90;;;;;;;;;;4997975;28;20197;-58
2022/05/30 12:29:55;;;;;;;4.63;1.92;;;;;;;;;;4997800;28;20698;-57
2022/05/30 12:32:29;;;;;;;3.40;2.00;;;;;;;;;;4993958;28;20185;-58
2022/05/30 12:35:00;;;;;;;3.78;1.98;;;;;;;;;;4996075;28;20189;-59
2022/05/30 12:37:43;;;;;;;3.00;1.90;;;;;;;;;;4997048;28;20722;-58
2022/05/30 12:40:13;;;;;;;3.05;1.88;;;;;;;;;;4992211;28;20875;-58
2022/05/30 12:42:43;;;;;;;4.05;1.90;;;;;;;;;;4994392;28;20190;-58
2022/05/30 12:45:20;;;;;;;4.50;2.33;;;;;;;;;;4995789;28;20655;-58
2022/05/30 12:47:53;;;;;;;4.40;2.20;;;;;;;;;;4992784;28;20858;-58
2022/05/30 12:50:40;;;;;;;3.25;2.20;;;;;;;;;;4998104;28;20741;-58
2022/05/30 12:53:06;;;;;;;3.70;2.60;;;;;;;;;;4991841;28;20470;-58
2022/05/30 12:55:35;;;;;;;3.30;1.98;;;;;;;;;;4990281;28;20193;-59
2022/05/30 12:58:01;;;;;;;3.75;1.90;;;;;;;;;;4996511;28;20174;-58
2022/05/30 13:00:42;;;;;;;4.10;1.63;;;;;;;;;;4991457;28;20240;-59
2022/05/30 13:03:08;;;;;;;3.35;1.77;;;;;;;;;;4987413;28;20194;-56
2022/05/30 13:05:40;;;;;;;4.28;2.03;;;;;;;;;;4988658;28;20201;-58
2022/05/30 13:08:25;;;;;;;4.25;1.60;;;;;;;;;;4992358;28;20237;-58
2022/05/30 13:10:51;;;;;;;3.15;1.73;;;;;;;;;;4988155;28;20659;-59
2022/05/30 13:13:17;;;;;;;3.90;1.77;;;;;;;;;;4994433;28;20193;-58
2022/05/30 13:15:44;;;;;;;4.18;2.35;;;;;;;;;;4992268;28;20229;-59
2022/05/30 13:18:18;;;;;;;1.83;1.50;;;;;;;;;;4994109;28;20189;-59
2022/05/30 13:20:44;;;;;;;2.63;1.80;;;;;;;;;;5003051;28;20187;-59
2022/05/30 13:23:10;;;;;;;3.65;1.83;;;;;;;;;;4995560;28;20205;-59
2022/05/30 13:25:39;;;;;;;2.80;1.60;;;;;;;;;;4992597;28;20232;-59
2022/05/30 13:28:09;;;;;;;2.83;1.60;;;;;;;;;;4995532;28;20205;-57
2022/05/30 13:30:35;;;;;;;3.80;1.80;;;;;;;;;;4994944;28;20214;-57
2022/05/30 13:33:08;;;;;;;2.60;2.05;;;;;;;;;;4992541;28;20181;-57
2022/05/30 13:35:34;;;;;;;5.10;1.88;;;;;;;;;;4989513;28;20197;-57
2022/05/30 13:38:01;;;;;;;3.42;1.98;;;;;;;;;;4983943;28;20179;-57
2022/05/30 13:40:28;;;;;;;3.10;1.90;;;;;;;;;;4994242;28;20178;-57
2022/05/30 13:42:55;;;;;;;3.17;1.90;;;;;;;;;;4990409;28;20185;-57
2022/05/30 13:45:22;;;;;;;3.83;1.92;;;;;;;;;;4988308;28;20218;-58
2022/05/30 13:47:48;;;;;;;4.60;2.15;;;;;;;;;;4988351;28;20259;-58
2022/05/30 13:50:17;;;;;;;3.78;1.83;;;;;;;;;;4987877;28;20224;-58
2022/05/30 13:52:43;;;;;;;4.05;2.00;;;;;;;;;;4984857;28;20198;-58
2022/05/30 13:55:17;;;;;;;4.25;1.90;;;;;;;;;;4989379;28;20696;-57
2022/05/30 13:57:42;;;;;;;3.35;2.00;;;;;;;;;;4990609;28;20193;-58
2022/05/30 14:00:10;;;;;;;2.75;1.70;;;;;;;;;;4987233;28;20555;-57
2022/05/30 14:02:39;;;;;;;5.30;1.92;;;;;;;;;;4993560;28;20189;-57
2022/05/30 14:05:08;;;;;;;3.15;1.70;;;;;;;;;;4993473;28;20721;-57
2022/05/30 14:07:34;;;;;;;4.88;1.98;;;;;;;;;;4993778;28;20191;-57
2022/05/30 14:10:03;;;;;;;3.25;1.75;;;;;;;;;;4995956;28;20212;-57
2022/05/30 14:12:33;;;;;;;4.20;2.03;;;;;;;;;;4992781;28;20186;-58
2022/05/30 14:15:13;;;;;;;2.40;1.50;;;;;;;;;;4994584;28;20551;-57
2022/05/30 14:17:39;;;;;;;2.90;1.70;;;;;;;;;;4994482;28;20284;-57
2022/05/30 14:20:09;;;;;;;2.85;1.77;;;;;;;;;;4999609;28;20194;-58
2022/05/30 14:22:35;;;;;;;2.22;1.48;;;;;;;;;;4995694;28;20570;-57
2022/05/30 14:25:03;;;;;;;3.85;1.60;;;;;;;;;;4991514;28;20959;-58
2022/05/30 14:27:38;;;;;;;5.22;1.92;;;;;;;;;;4988387;28;20209;-57
2022/05/30 14:30:06;;;;;;;5.80;1.70;;;;;;;;;;4982148;28;20220;-57
2022/05/30 14:32:35;;;;;;;2.58;1.50;;;;;;;;;;4990420;28;20185;-57
2022/05/30 14:35:04;;;;;;;3.85;1.70;;;;;;;;;;4990203;28;20193;-57
2022/05/30 14:37:43;;;;;;;3.00;1.50;;;;;;;;;;4992160;28;20273;-58
2022/05/30 14:40:36;;;;;;;4.22;1.70;;;;;;;;;;4990188;28;20642;-56
2022/05/30 14:43:03;;;;;;;2.90;1.73;;;;;;;;;;4991147;28;20205;-57
2022/05/30 14:45:34;;;;;;;3.25;1.60;;;;;;;;;;4988604;28;20203;-57
2022/05/30 14:48:11;;;;;;;2.65;1.67;;;;;;;;;;4992453;28;20213;-57
2022/05/30 14:50:41;;;;;;;3.80;1.67;;;;;;;;;;4978574;28;20213;-57
2022/05/30 14:53:07;;;;;;;2.35;1.50;;;;;;;;;;4990369;28;20212;-57
2022/05/30 14:55:42;;;;;;;2.88;1.73;;;;;;;;;;4993624;28;20182;-57
2022/05/30 14:58:15;;;;;;;2.20;1.63;;;;;;;;;;4991207;28;20193;-57
2022/05/30 15:00:55;;;;;;;3.05;1.73;;;;;;;;;;4993294;28;20692;-57
2022/05/30 15:06:08;;;;;;;3.20;1.88;;;;;;;;;;4968464;28;20763;-57
2022/05/30 15:08:34;;;;;;;4.00;1.52;;;;;;;;;;4958260;28;20198;-57
2022/05/30 15:11:14;;;;;;;4.25;1.70;;;;;;;;;;4970689;28;20244;-57
2022/05/30 15:13:41;;;;;;;3.90;1.70;;;;;;;;;;4989178;28;20240;-57
2022/05/30 15:16:07;;;;;;;4.70;2.10;;;;;;;;;;4988341;28;20186;-57
2022/05/30 15:18:33;;;;;;;4.68;1.60;;;;;;;;;;4989014;28;20865;-57